createdAt,value
2022-12-19T00:04:39.023Z,23.35
2022-12-19T00:09:37.274Z,17.42
2022-12-19T00:14:36.912Z,17.88
2022-12-19T00:19:35.165Z,21.20
2022-12-19T00:24:33.522Z,17.42
2022-12-19T00:29:31.727Z,21.60
2022-12-19T00:34:33.783Z,17.92
2022-12-19T00:39:33.564Z,17.42
2022-12-19T00:44:31.785Z,17.77
2022-12-19T00:49:30.251Z,18.48
2022-12-19T00:54:31.303Z,19.80
2022-12-19T00:59:31.352Z,18.17
2022-12-19T01:04:31.127Z,19.80
2022-12-19T01:09:32.637Z,18.38
2022-12-19T01:14:30.829Z,18.60
2022-12-19T01:19:29.079Z,17.92
2022-12-19T01:24:27.304Z,19.17
2022-12-19T01:29:26.879Z,17.90
2022-12-19T01:34:25.816Z,15.10
2022-12-19T01:39:24.193Z,19.25
2022-12-19T01:44:26.982Z,17.95
2022-12-19T01:49:29.151Z,17.92
2022-12-19T01:54:30.875Z,18.35
2022-12-19T01:59:33.133Z,20.35
2022-12-19T02:04:32.326Z,20.00
2022-12-19T02:09:31.577Z,19.88
2022-12-19T02:14:31.182Z,19.52
2022-12-19T02:19:40.186Z,20.73
2022-12-19T02:24:56.398Z,19.13
2022-12-19T02:30:10.638Z,22.77
2022-12-19T02:35:18.430Z,18.58
2022-12-19T02:40:18.397Z,19.38
2022-12-19T02:45:28.379Z,19.75
2022-12-19T02:50:36.286Z,20.67
2022-12-19T02:55:37.947Z,18.92
2022-12-19T03:00:41.277Z,18.63
2022-12-19T03:05:46.565Z,19.65
2022-12-19T03:15:43.047Z,17.88
2022-12-19T03:20:45.438Z,17.77
2022-12-19T03:25:45.640Z,19.55
2022-12-19T03:30:45.636Z,18.88
2022-12-19T03:35:46.427Z,18.77
2022-12-19T03:40:45.366Z,18.52
2022-12-19T03:45:45.862Z,19.63
2022-12-19T03:50:47.928Z,20.00
2022-12-19T03:55:48.667Z,21.83
2022-12-19T04:00:48.376Z,18.48
2022-12-19T04:05:48.896Z,20.48
2022-12-19T04:10:50.282Z,21.60
2022-12-19T04:15:51.514Z,21.45
2022-12-19T04:20:53.848Z,20.13
2022-12-19T04:25:53.829Z,20.88
2022-12-19T04:30:52.919Z,21.90
2022-12-19T04:35:52.601Z,17.33
2022-12-19T04:40:50.788Z,18.60
2022-12-19T04:45:52.693Z,19.10
2022-12-19T04:50:55.215Z,19.33
2022-12-19T04:56:00.986Z,18.40
2022-12-19T05:01:01.685Z,18.63
2022-12-19T05:06:08.093Z,17.42
2022-12-19T05:11:07.294Z,16.83
2022-12-19T05:16:09.617Z,18.33
2022-12-19T05:21:09.242Z,18.65
2022-12-19T05:26:07.857Z,19.50
2022-12-19T05:31:09.543Z,19.83
2022-12-19T05:36:12.638Z,18.17
2022-12-19T05:41:11.572Z,19.15
2022-12-19T05:46:10.119Z,17.17
2022-12-19T05:51:08.341Z,17.63
2022-12-19T05:56:09.997Z,18.83
2022-12-19T06:01:11.891Z,17.40
2022-12-19T06:06:11.053Z,18.83
2022-12-19T06:11:11.166Z,18.77
2022-12-19T06:16:11.204Z,17.10
2022-12-19T06:21:11.414Z,18.63
2022-12-19T06:26:17.088Z,23.80
2022-12-19T06:31:17.216Z,27.40
2022-12-19T06:36:20.509Z,18.75
2022-12-19T06:41:37.708Z,17.45
2022-12-19T06:46:35.930Z,18.20
2022-12-19T06:51:34.299Z,16.75
2022-12-19T06:56:37.145Z,18.85
2022-12-19T07:01:40.940Z,15.55
2022-12-19T07:06:41.506Z,15.60
2022-12-19T07:11:44.300Z,16.02
2022-12-19T07:16:42.924Z,16.38
2022-12-19T07:21:41.412Z,15.30
2022-12-19T07:26:40.217Z,16.13
2022-12-19T07:31:39.830Z,15.13
2022-12-19T07:36:38.063Z,14.13
2022-12-19T07:41:37.405Z,15.95
2022-12-19T07:46:35.955Z,17.45
2022-12-19T07:51:35.577Z,17.42
2022-12-19T07:56:33.734Z,16.27
2022-12-19T08:01:33.567Z,15.70
2022-12-19T08:06:35.184Z,26.63
2022-12-19T08:11:37.473Z,16.27
2022-12-19T08:16:55.657Z,15.73
2022-12-19T08:21:54.574Z,16.52
2022-12-19T08:26:54.141Z,14.95
2022-12-19T08:31:52.498Z,15.07
2022-12-19T08:36:50.727Z,17.55
2022-12-19T08:41:48.919Z,16.98
2022-12-19T08:46:50.543Z,15.25
2022-12-19T08:51:48.945Z,16.70
2022-12-19T08:56:47.315Z,20.38
2022-12-19T09:01:46.077Z,20.63
2022-12-19T09:06:45.808Z,19.05
2022-12-19T09:11:47.978Z,16.10
2022-12-19T09:16:46.730Z,16.15
2022-12-19T09:21:46.508Z,20.90
2022-12-19T09:26:45.899Z,18.75
2022-12-19T09:31:44.087Z,17.20
2022-12-19T09:36:42.275Z,17.10
2022-12-19T09:41:59.303Z,17.95
2022-12-19T09:46:58.726Z,16.88
2022-12-19T09:52:00.632Z,17.17
2022-12-19T09:57:02.508Z,15.23
2022-12-19T10:02:05.515Z,16.10
2022-12-19T10:07:21.175Z,23.97
2022-12-19T10:12:45.021Z,17.75
2022-12-19T10:17:58.251Z,21.05
2022-12-19T10:23:01.971Z,16.35
2022-12-19T10:28:05.878Z,19.13
2022-12-19T10:33:07.381Z,15.82
2022-12-19T10:38:18.974Z,16.83
2022-12-19T10:43:32.766Z,16.42
2022-12-19T10:48:32.325Z,40.63
2022-12-19T10:53:32.231Z,23.08
2022-12-19T10:58:35.330Z,24.30
2022-12-19T11:03:34.169Z,29.85
2022-12-19T11:08:33.767Z,17.38
2022-12-19T11:18:55.754Z,18.95
2022-12-19T11:26:41.752Z,19.15
2022-12-19T11:30:46.259Z,18.65
2022-12-19T11:35:08.210Z,18.65
2022-12-19T11:40:11.662Z,27.67
2022-12-19T11:45:15.654Z,29.35
2022-12-19T11:50:16.683Z,24.65
2022-12-19T11:55:18.387Z,21.17
2022-12-19T12:00:21.512Z,20.92
2022-12-19T12:05:35.244Z,31.33
2022-12-19T12:15:38.775Z,22.27
2022-12-19T12:25:05.416Z,21.90
2022-12-19T12:31:14.855Z,21.48
2022-12-19T12:31:43.410Z,18.98
2022-12-19T12:35:28.852Z,19.17
2022-12-19T12:42:54.390Z,22.73
2022-12-19T12:47:54.487Z,23.38
2022-12-19T12:52:54.868Z,24.70
2022-12-19T12:57:53.134Z,18.85
2022-12-19T13:02:53.407Z,19.73
2022-12-19T13:07:53.433Z,22.02
2022-12-19T13:13:01.804Z,21.88
2022-12-19T13:18:09.396Z,20.15
2022-12-19T13:23:23.100Z,25.10
2022-12-19T13:28:38.409Z,19.42
2022-12-19T13:33:45.973Z,17.30
2022-12-19T13:40:01.049Z,20.02
2022-12-19T13:44:06.633Z,20.35
2022-12-19T13:49:07.081Z,19.98
2022-12-19T13:54:19.245Z,19.92
2022-12-19T13:59:17.556Z,22.60
2022-12-19T14:04:25.214Z,19.73
2022-12-19T14:11:27.154Z,22.00
2022-12-19T14:15:13.308Z,21.00
2022-12-19T14:20:57.437Z,20.30
2022-12-19T14:28:14.470Z,19.10
2022-12-19T14:31:00.342Z,19.63
2022-12-19T14:36:08.910Z,19.42
2022-12-19T14:41:40.450Z,19.30
2022-12-19T14:52:11.488Z,20.48
2022-12-19T14:54:22.390Z,24.08
2022-12-19T14:57:29.027Z,23.88
2022-12-19T15:02:39.640Z,27.38
2022-12-19T15:07:42.433Z,25.08
2022-12-19T15:14:53.992Z,22.70
2022-12-19T15:18:27.105Z,31.45
2022-12-19T15:23:26.035Z,25.30
2022-12-19T15:28:27.567Z,28.60
2022-12-19T15:33:25.795Z,23.98
2022-12-19T15:38:23.969Z,26.27
2022-12-19T15:44:01.794Z,29.15
2022-12-19T15:48:45.355Z,26.20
2022-12-19T15:53:44.011Z,28.52
2022-12-19T15:58:42.193Z,23.30
2022-12-19T16:03:40.703Z,23.63
2022-12-19T16:08:40.581Z,22.92
2022-12-19T16:13:39.133Z,20.77
2022-12-19T16:18:37.471Z,22.63
2022-12-19T16:23:35.675Z,23.63
2022-12-19T16:28:35.455Z,25.13
2022-12-19T16:33:34.226Z,28.08
2022-12-19T16:38:33.509Z,30.00
2022-12-19T16:43:33.201Z,35.22
2022-12-19T16:48:35.642Z,26.83
2022-12-19T16:53:33.985Z,27.02
2022-12-19T16:58:41.253Z,25.67
2022-12-19T17:03:46.662Z,22.33
2022-12-19T17:08:45.030Z,22.17
2022-12-19T17:13:43.652Z,26.20
2022-12-19T17:18:43.864Z,34.08
2022-12-19T17:23:42.635Z,29.85
2022-12-19T17:28:40.991Z,29.63
2022-12-19T17:33:41.296Z,27.92
2022-12-19T17:38:54.024Z,25.95
2022-12-19T17:43:57.981Z,28.23
2022-12-19T17:48:56.396Z,28.48
2022-12-19T17:53:56.011Z,30.20
2022-12-19T17:58:55.835Z,35.05
2022-12-19T18:03:56.250Z,30.25
2022-12-19T18:08:55.254Z,29.58
2022-12-19T18:13:55.112Z,37.20
2022-12-19T18:18:53.577Z,34.10
2022-12-19T18:23:51.845Z,31.13
2022-12-19T18:28:53.038Z,28.73
2022-12-19T18:33:53.782Z,29.80
2022-12-19T18:38:55.561Z,24.15
2022-12-19T18:43:53.917Z,25.60
2022-12-19T18:48:58.514Z,39.05
2022-12-19T18:53:56.840Z,37.08
2022-12-19T18:58:55.138Z,47.45
2022-12-19T19:03:55.619Z,30.08
2022-12-19T19:08:56.572Z,26.85
2022-12-19T19:14:13.813Z,33.67
2022-12-19T19:19:15.945Z,31.67
2022-12-19T19:24:16.211Z,29.58
2022-12-19T19:29:16.872Z,39.03
2022-12-19T19:34:17.673Z,28.55
2022-12-19T19:39:16.391Z,22.27
2022-12-19T19:44:14.951Z,31.13
2022-12-19T19:49:13.158Z,26.10
2022-12-19T19:54:13.460Z,24.73
2022-12-19T19:59:13.680Z,19.90
2022-12-19T20:04:11.939Z,29.52
2022-12-19T20:09:14.656Z,28.58
2022-12-19T20:14:12.926Z,24.63
2022-12-19T20:19:11.189Z,27.30
2022-12-19T20:24:09.532Z,31.45
2022-12-19T20:29:11.574Z,47.95
2022-12-19T20:34:09.839Z,27.17
2022-12-19T20:39:08.154Z,24.50
2022-12-19T20:44:07.830Z,24.02
2022-12-19T20:49:09.744Z,22.13
2022-12-19T20:54:08.824Z,23.13
2022-12-19T20:59:07.063Z,25.88
2022-12-19T21:04:06.167Z,29.67
2022-12-19T21:09:14.007Z,36.40
2022-12-19T21:14:12.401Z,26.48
2022-12-19T21:19:14.492Z,23.83
2022-12-19T21:24:14.745Z,27.00
2022-12-19T21:29:15.045Z,22.30
2022-12-19T21:34:13.391Z,23.35
2022-12-19T21:39:13.169Z,22.75
2022-12-19T21:44:13.472Z,22.75
2022-12-19T21:49:15.118Z,24.80
2022-12-19T21:54:13.348Z,22.50
2022-12-19T21:59:13.821Z,24.52
2022-12-19T22:04:13.471Z,23.23
2022-12-19T22:09:15.685Z,22.42
2022-12-19T22:14:15.758Z,26.70
2022-12-19T22:19:14.748Z,23.48
2022-12-19T22:24:15.334Z,24.25
2022-12-19T22:29:16.402Z,27.83
2022-12-19T22:34:18.731Z,26.67
2022-12-19T22:39:18.120Z,27.58
2022-12-19T22:44:19.132Z,24.83
2022-12-19T22:49:17.775Z,28.58
2022-12-19T22:54:15.999Z,26.92
2022-12-19T22:59:14.209Z,31.70
2022-12-19T23:04:15.342Z,22.35
2022-12-19T23:09:15.541Z,23.40
2022-12-19T23:14:14.735Z,25.23
2022-12-19T23:19:15.069Z,23.20
2022-12-19T23:24:13.393Z,23.13
2022-12-19T23:29:12.294Z,22.58
2022-12-19T23:34:10.711Z,21.23
2022-12-19T23:39:10.913Z,19.58
2022-12-19T23:44:09.360Z,30.38
2022-12-19T23:49:07.640Z,19.15
2022-12-19T23:54:05.887Z,18.55
2022-12-19T23:59:05.573Z,20.92
